Latest Weather Observations for Port Fairy

IDV60801

Issued at 7:05 pm EDT Thursday 23 October 2014 (issued every 30 minutes, with the page automatically refreshed every 10 minutes)

About weather observations | Map of weather stations | Latest weather observations for VIC | Other Formats
Station Details ID: 090175 Name: PORT FAIRY AWS Lat: -38.39 Lon: 142.23 Height: 10.0 m
Data from the previous 72 hours. | See also: Recent months at Port Fairy
Date/Time
EDT
Temp
°C
App
Temp
°C
Dew
Point
Rel
Hum
%
Delta-T
°C
Wind Press
QNH
hPa
Press
MSL
hPa
Rain
since 9 am
mm
Dir
 
Spd
km/h
Gust
km/h
Spd
kts
Gust
kts
23/07:00pm 15.9 14.9 13.4 85 1.4 SE 11 15 6 8 1015.5 1015.5 0.0
23/06:30pm 16.1 14.6 13.2 83 1.6 SE 13 17 7 9 1015.6 1015.6 0.0
23/06:00pm 16.1 13.4 13.0 82 1.7 SE 19 24 10 13 1015.7 1015.7 0.0
23/05:30pm 16.6 13.8 13.3 81 1.8 SE 20 28 11 15 1015.8 1015.8 0.0
23/05:00pm 16.6 13.3 12.9 79 2.1 SE 22 30 12 16 1015.8 1015.8 0.0
23/04:30pm 16.4 12.7 12.6 78 2.1 SE 24 30 13 16 1016.3 1016.3 0.0
23/04:00pm 17.2 13.9 12.9 76 2.4 SE 22 26 12 14 1016.9 1016.9 0.0
23/03:30pm 17.3 14.6 12.8 75 2.5 SE 19 24 10 13 1017.1 1017.1 0.0
23/03:00pm 16.7 13.8 12.3 75 2.4 SE 19 24 10 13 1017.2 1017.2 0.0
23/02:30pm 16.6 14.2 12.8 78 2.1 SE 17 22 9 12 1017.7 1017.7 0.0
23/02:00pm 16.1 13.6 12.3 78 2.1 SE 17 22 9 12 1018.1 1018.1 0.0
23/01:30pm 15.8 12.9 12.2 79 2.0 SE 19 24 10 13 1018.5 1018.5 0.0
23/01:00pm 15.4 12.4 11.8 79 1.9 ESE 19 24 10 13 1019.0 1019.0 0.0
23/12:30pm 15.2 12.0 11.8 80 1.8 ESE 20 28 11 15 1019.3 1019.3 0.0
23/12:00pm 14.7 11.1 11.7 82 1.6 SE 22 32 12 17 1019.7 1019.7 0.0
23/11:30am 14.7 10.7 11.8 83 1.6 SE 24 33 13 18 1020.1 1020.1 0.0
23/11:00am 14.7 10.8 12.0 84 1.5 SE 24 33 13 18 1020.4 1020.4 0.0
23/10:30am 14.0 9.7 11.9 87 1.1 SE 26 35 14 19 1020.7 1020.7 0.0
23/10:00am 13.9 9.1 11.6 86 1.2 SE 28 35 15 19 1020.9 1020.9 0.0
23/09:30am 14.1 10.4 11.6 85 1.3 SE 22 30 12 16 1020.8 1020.8 0.0
23/09:00am 13.7 9.1 11.2 85 1.3 SE 26 35 14 19 1020.8 1020.8 0.0
23/08:30am 13.4 9.2 11.1 86 1.2 SE 24 32 13 17 1021.0 1021.0 0.0
23/08:00am 13.6 8.6 11.1 85 1.3 SE 28 35 15 19 1020.9 1020.9 0.0
23/07:30am 13.5 9.3 11.2 86 1.2 SE 24 33 13 18 1020.9 1020.9 0.0
23/07:00am 13.8 10.5 11.5 86 1.2 SE 20 33 11 18 1020.5 1020.5 0.0
23/06:30am 13.5 9.7 11.2 86 1.2 SE 22 32 12 17 1020.4 1020.4 0.0
23/06:00am 13.6 9.8 11.3 86 1.2 SE 22 32 12 17 1020.2 1020.2 0.0
23/05:30am 13.4 8.9 11.3 87 1.1 SE 26 35 14 19 1020.2 1020.2 0.0
23/05:00am 13.5 9.4 11.6 88 1.0 SE 24 32 13 17 1020.2 1020.2 0.0
23/04:30am 13.6 9.5 11.5 87 1.1 SE 24 32 13 17 1020.1 1020.1 0.0
23/04:00am 13.4 9.3 11.5 88 1.0 SSE 24 32 13 17 1020.2 1020.2 0.0
23/03:30am 13.4 9.3 11.6 89 1.0 SSE 24 35 13 19 1020.2 1020.2 0.0
23/03:00am 13.4 8.6 11.5 88 1.0 SSE 28 35 15 19 1020.4 1020.4 0.0
23/02:30am 13.5 9.1 11.6 88 1.0 SSE 26 33 14 18 1020.5 1020.5 0.0
23/02:00am 13.4 8.6 11.5 88 1.0 SSE 28 37 15 20 1020.5 1020.5 0.0
23/01:30am 13.7 9.6 11.6 87 1.1 SSE 24 32 13 17 1020.6 1020.6 0.0
23/01:00am 13.9 10.3 11.8 87 1.1 SSE 22 30 12 16 1020.8 1020.8 0.0
23/12:30am 13.6 10.3 11.5 87 1.1 SSE 20 32 11 17 1020.8 1020.8 0.0
23/12:00am 13.6 10.0 11.7 88 1.0 SSE 22 28 12 15 1020.9 1020.9 0.0
 
Date/Time
EDT
Temp
°C
App
Temp
°C
Dew
Point
Rel
Hum
%
Delta-T
°C
Wind Press
QNH
hPa
Press
MSL
hPa
Rain
since 9 am
mm
Dir
 
Spd
km/h
Gust
km/h
Spd
kts
Gust
kts
22/11:30pm 13.9 10.7 11.9 88 1.1 SSE 20 28 11 15 1020.9 1020.9 0.0
22/11:00pm 13.7 10.5 11.8 88 1.0 SSE 20 28 11 15 1020.7 1020.7 0.0
22/10:30pm 13.8 10.6 11.8 88 1.1 SSE 20 28 11 15 1020.6 1020.6 0.0
22/10:00pm 13.7 10.1 11.8 88 1.0 SSE 22 30 12 16 1020.7 1020.7 0.0
22/09:30pm 13.8 10.6 12.0 89 1.0 SSE 20 30 11 16 1020.9 1020.9 0.0
22/09:00pm 13.9 10.8 12.1 89 1.0 SSE 20 28 11 15 1020.6 1020.6 0.0
22/08:30pm 14.1 10.6 12.3 89 1.0 SSE 22 28 12 15 1020.3 1020.3 0.0
22/08:00pm 13.9 10.8 12.3 90 0.9 S 20 28 11 15 1020.0 1020.0 0.0
22/07:30pm 14.1 11.1 12.5 90 0.9 S 20 30 11 16 1019.3 1019.3 0.0
22/07:00pm 14.2 10.4 12.4 89 1.0 SSW 24 35 13 19 1018.7 1018.7 0.0
22/06:30pm 14.4 10.7 12.6 89 1.0 SSW 24 33 13 18 1018.2 1018.2 0.0
22/06:00pm 14.8 11.9 12.8 88 1.1 SSW 20 30 11 16 1017.6 1017.6 0.0
22/05:30pm 14.9 12.2 12.8 87 1.2 SSW 19 32 10 17 1017.2 1017.2 0.0
22/05:00pm 15.7 11.8 13.2 85 1.4 SSW 26 33 14 18 1017.1 1017.1 0.0
22/04:30pm 15.9 12.0 13.2 84 1.5 SSW 26 35 14 19 1017.2 1017.2 0.0
22/04:00pm 16.6 11.9 13.3 81 1.8 SSW 30 39 16 21 1017.0 1017.0 0.0
22/03:30pm 17.3 13.1 13.6 79 2.1 SW 28 37 15 20 1016.7 1016.7 0.0
22/03:00pm 18.9 14.6 13.3 70 3.2 SW 28 33 15 18 1016.6 1016.6 0.0
22/02:57pm 19.5 15.3 13.4 68 3.5 SW 28 32 15 17 1016.7 1016.7 0.0
22/02:30pm 22.1 22.2 14.5 62 4.5 SW 7 11 4 6 1016.5 1016.5 0.0
22/02:00pm 18.6 19.1 13.9 74 2.7 S 4 7 2 4 1016.5 1016.5 0.0
22/01:30pm 18.6 16.3 13.0 70 3.2 SW 17 20 9 11 1016.6 1016.6 0.0
22/01:00pm 22.9 22.4 12.2 51 6.1 SSW 6 13 3 7 1016.5 1016.5 0.0
22/12:30pm 23.4 24.7 15.2 60 4.9 S 2 6 1 3 1016.5 1016.5 0.0
22/12:00pm 20.6 20.9 14.9 70 3.3 S 7 11 4 6 1016.9 1016.9 0.0
22/11:30am 23.4 24.7 16.2 64 4.4 ESE 4 11 2 6 1016.5 1016.5 0.0
22/11:00am 21.1 21.4 15.0 68 3.6 ENE 7 13 4 7 1016.7 1016.7 0.0
22/10:30am 19.8 19.8 13.7 68 3.5 ENE 6 11 3 6 1017.0 1017.0 0.0
22/10:00am 19.4 19.6 13.1 67 3.6 ENE 4 7 2 4 1017.5 1017.5 0.0
22/09:30am 18.9 18.4 12.6 67 3.5 ENE 7 13 4 7 1017.4 1017.4 0.0
22/09:00am 18.2 17.7 12.0 67 3.4 ENE 6 9 3 5 1017.3 1017.3 0.0
22/08:30am 18.8 18.8 13.6 72 3.0 E 6 7 3 4 1017.3 1017.3 0.0
22/08:00am 16.8 17.3 12.9 78 2.2 SSE 2 6 1 3 1017.3 1017.3 0.0
22/07:30am 15.2 15.1 12.2 82 1.6 NNE 4 7 2 4 1016.8 1016.8 0.0
22/07:00am 13.1 12.4 9.9 81 1.6 E 4 9 2 5 1017.1 1017.1 0.0
22/06:30am 13.6 12.8 9.6 77 2.0 NW 4 9 2 5 1016.9 1016.9 0.0
22/06:00am 14.9 14.3 10.5 75 2.3 ENE 4 7 2 4 1016.7 1016.7 0.0
22/05:30am 14.8 14.1 10.0 73 2.5 ESE 4 7 2 4 1016.5 1016.5 0.0
22/05:00am 15.2 12.9 10.4 73 2.5 N 13 17 7 9 1016.3 1016.3 0.0
22/04:30am 15.1 13.6 10.5 74 2.4 NNE 9 13 5 7 1016.4 1016.4 0.0
22/04:00am 15.4 13.2 10.8 74 2.4 NNE 13 19 7 10 1016.3 1016.3 0.0
22/03:30am 14.6 12.0 10.6 77 2.1 NE 15 17 8 9 1016.4 1016.4 0.0
22/03:00am 14.7 12.5 10.7 77 2.1 NNE 13 17 7 9 1017.0 1017.0 0.0
22/02:30am 14.8 12.7 11.0 78 2.0 NNE 13 17 7 9 1017.5 1017.5 0.0
22/02:00am 14.9 12.5 11.3 79 1.9 NNE 15 19 8 10 1017.9 1017.9 0.0
22/01:30am 15.0 13.1 11.8 81 1.7 NNE 13 19 7 10 1018.3 1018.3 0.0
22/01:00am 15.4 13.2 12.2 81 1.7 NNE 15 20 8 11 1018.7 1018.7 0.0
22/12:30am 15.8 13.8 12.7 82 1.7 NNE 15 22 8 12 1019.2 1019.2 0.0
22/12:00am 15.6 14.4 12.9 84 1.5 NNE 11 17 6 9 1019.4 1019.4 0.0
 
Date/Time
EDT
Temp
°C
App
Temp
°C
Dew
Point
Rel
Hum
%
Delta-T
°C
Wind Press
QNH
hPa
Press
MSL
hPa
Rain
since 9 am
mm
Dir
 
Spd
km/h
Gust
km/h
Spd
kts
Gust
kts
21/11:30pm 15.5 14.4 13.2 86 1.3 NNE 11 15 6 8 1019.8 1019.8 0.0
21/11:00pm 15.4 15.1 13.4 88 1.1 NE 7 9 4 5 1020.2 1020.2 0.0
21/10:30pm 16.0 15.3 14.2 89 1.0 ENE 11 15 6 8 1020.5 1020.5 0.0
21/10:00pm 15.6 15.1 13.8 89 1.0 ENE 9 13 5 7 1020.6 1020.6 0.0
21/09:30pm 15.5 15.3 13.7 89 1.0 E 7 9 4 5 1020.8 1020.8 0.0
21/09:00pm 15.4 14.4 13.4 88 1.1 E 11 19 6 10 1020.4 1020.4 0.0
21/08:30pm 15.3 14.2 13.0 86 1.3 E 11 15 6 8 1020.6 1020.6 0.0
21/08:00pm 15.6 14.7 12.7 83 1.6 E 9 15 5 8 1020.7 1020.7 0.0
21/07:30pm 16.0 14.4 12.7 81 1.8 E 13 19 7 10 1020.7 1020.7 0.0
21/07:00pm 16.7 15.1 12.8 78 2.2 E 13 19 7 10 1020.8 1020.8 0.0
21/06:30pm 17.1 15.6 13.0 77 2.3 ESE 13 22 7 12 1020.9 1020.9 0.0
21/06:00pm 17.6 15.3 13.1 75 2.5 ESE 17 28 9 15 1021.1 1021.1 0.0
21/05:30pm 18.6 16.5 13.7 73 2.8 ESE 17 26 9 14 1021.2 1021.2 0.0
21/05:00pm 18.1 16.0 13.6 75 2.5 ESE 17 24 9 13 1021.7 1021.7 0.0
21/04:30pm 17.8 15.2 13.3 75 2.5 ESE 19 24 10 13 1021.8 1021.8 0.0
21/04:00pm 18.4 16.1 14.1 76 2.5 SE 19 26 10 14 1021.9 1021.9 0.0
21/03:30pm 18.6 16.7 14.1 75 2.6 SE 17 22 9 12 1022.2 1022.2 0.0
21/03:00pm 18.9 17.3 14.0 73 2.8 SE 15 20 8 11 1022.8 1022.8 0.0
21/02:30pm 19.0 17.4 13.8 72 3.0 SE 15 20 8 11 1023.0 1023.0 0.0
21/02:00pm 19.0 16.8 13.4 70 3.2 SE 17 20 9 11 1023.5 1023.5 0.0
21/01:30pm 19.7 18.5 13.9 69 3.3 SE 13 19 7 10 1023.7 1023.7 0.0
21/01:00pm 19.2 17.4 12.2 64 3.9 SE 13 17 7 9 1023.9 1023.9 0.0
21/12:30pm 20.9 19.7 12.8 60 4.6 ESE 11 15 6 8 1024.1 1024.1 0.0
21/12:00pm 19.1 17.2 11.9 63 4.0 ESE 13 15 7 8 1024.6 1024.6 0.0
21/11:30am 19.0 18.0 12.3 65 3.7 E 9 15 5 8 1024.9 1024.9 0.0
21/11:00am 18.1 17.0 12.1 68 3.3 ENE 9 17 5 9 1025.1 1025.1 0.0
21/10:30am 16.2 14.1 11.2 72 2.7 E 13 19 7 10 1025.2 1025.2 0.0
21/10:00am 14.9 12.7 10.9 77 2.1 ENE 13 22 7 12 1025.5 1025.5 0.0
21/09:30am 13.0 10.4 9.4 79 1.8 ENE 13 20 7 11 1025.5 1025.5 0.0
21/09:00am 12.1 9.8 9.1 82 1.5 ENE 11 20 6 11 1025.7 1025.7 0.0
21/08:30am 11.1 7.9 8.5 84 1.3 ENE 15 24 8 13 1025.7 1025.7 0.0
21/08:00am 10.3 7.4 8.1 86 1.1 ENE 13 19 7 10 1025.7 1025.7 0.0
21/07:30am 10.2 6.9 8.0 86 1.1 NE 15 22 8 12 1025.4 1025.4 0.0
21/07:00am 10.3 6.3 8.1 86 1.1 ENE 19 30 10 16 1025.3 1025.3 0.0
21/06:30am 9.9 6.9 7.8 87 1.0 ENE 13 24 7 13 1025.2 1025.2 0.0
21/06:00am 9.8 6.8 7.7 87 1.0 ENE 13 19 7 10 1025.1 1025.1 0.0
21/05:30am 9.9 7.3 7.7 86 1.1 ENE 11 19 6 10 1025.3 1025.3 0.0
21/05:00am 9.9 7.7 7.7 86 1.0 ENE 9 15 5 8 1025.5 1025.5 0.0
21/04:30am 9.8 7.5 7.4 85 1.1 ENE 9 15 5 8 1025.7 1025.7 0.0
21/04:00am 10.0 7.7 7.6 85 1.1 ENE 9 19 5 10 1025.8 1025.8 0.0
21/03:30am 10.2 7.9 7.6 84 1.2 ENE 9 15 5 8 1026.0 1026.0 0.0
21/03:00am 10.6 6.8 7.7 82 1.4 ENE 17 28 9 15 1026.0 1026.0 0.0
21/02:30am 11.0 6.7 7.9 81 1.5 ENE 20 30 11 16 1026.2 1026.2 0.0
21/02:00am 11.6 7.4 8.3 80 1.6 E 20 32 11 17 1026.7 1026.7 0.0
21/01:30am 11.9 7.7 8.4 79 1.7 E 20 37 11 20 1027.2 1027.2 0.0
21/01:00am 12.0 7.9 8.5 79 1.7 E 20 41 11 22 1027.5 1027.5 0.0
21/12:30am 12.2 8.1 8.5 78 1.8 E 20 30 11 16 1027.7 1027.7 0.0
21/12:00am 12.1 7.9 8.2 77 1.9 E 20 32 11 17 1028.0 1028.0 0.0
 
Date/Time
EDT
Temp
°C
App
Temp
°C
Dew
Point
Rel
Hum
%
Delta-T
°C
Wind Press
QNH
hPa
Press
MSL
hPa
Rain
since 9 am
mm
Dir
 
Spd
km/h
Gust
km/h
Spd
kts
Gust
kts
20/11:30pm 12.0 7.8 8.1 77 1.9 E 20 30 11 16 1028.1 1028.1 0.0
20/11:00pm 12.0 7.7 7.9 76 2.0 E 20 28 11 15 1028.3 1028.3 0.0
20/10:30pm 11.8 7.5 7.7 76 2.0 E 20 30 11 16 1028.5 1028.5 0.0
20/10:00pm 11.9 7.6 7.8 76 2.0 E 20 28 11 15 1028.5 1028.5 0.0
20/09:30pm 12.6 8.0 8.1 74 2.2 E 22 32 12 17 1028.5 1028.5 0.0
20/09:00pm 12.9 8.1 8.8 76 2.0 E 24 37 13 20 1028.2 1028.2 0.0
20/08:30pm 13.2 7.7 9.1 76 2.1 ESE 28 41 15 22 1027.8 1027.8 0.0
20/08:13pm 13.3 7.8 9.2 76 2.1 ESE 28 46 15 25 1027.6 1027.6 0.0
20/08:00pm 13.0 7.0 8.7 75 2.1 ESE 30 44 16 24 1027.6 1027.6 0.0
20/07:30pm 13.4 7.5 8.9 74 2.3 ESE 30 41 16 22 1027.6 1027.6 0.0

Other Formats:

Comma delimited format used in spreadsheet applications
http://www.bom.gov.au/fwo/IDV60801/IDV60801.94830.axf

JavaScript Object Notation format (JSON) in row-major order
http://www.bom.gov.au/fwo/IDV60801/IDV60801.94830.json